Albertville, Canada
Current Conditions -  °F | °C
As of 11:00 PM on Tuesday 25 Nov 2014 (Local Time) from CYPA Reporting Station
Few Clouds Few Clouds  
Wind Chill: -11°   Ceiling: Unl
Heat Index: -11°   Visibility: 15mi
Dew Point: -17°   Wind: 3mph
Humidity: 77%   Direction: 330°NNW
Pressure: 30.33"   Gusts: NA
Location:  53.42°N, 105.53°W
Report Text: CYPA 260500Z 33003KT 15SM FEW021 M24/M27 A3033 RMK SC1 SLP316
Loading
Personal Weather Stations






























Interactive Weather Map New forecast layout! Learn more

10-Day Weather Forecast

Advertisements
Track Severe Weather on mobile